Decoded Metar for KPUW (PULLMAN/MOSCOW in WA, USA) (IATA:PUW) | Meteo·Mobile Aviation Weather
aviador You're here:

KPUW Decoded Metar

PULLMAN/MOSCOW in WA, USA
Report Time2019-01-20 10:53:00
UTC Time2019-01-20 11:28:23
Flight Rules vfr VFR
WindCalm
Visibility9999 m
Phenomena:N/A
Clouds:Few 043 Hf
Scattered 120 Hf
Expected CloudBase > 800 ft AGL from Temp-Dew spread
CeilingNone
Temp03°C (ISA -7)
Dew Point01°C (87% RH)
AAT1.2°C
QNH1018 hPa
Density Alt1,624 ft
Elevation2,536 ft
Report Wrong Elevation
Raw Report
KPUW 201053Z AUTO 00000KT 10SM FEW043 SCT120 03/01 A3006 RMK AO2
SLP192 T00280011 $=

Extra information for KPUW:More info

Metar Taf Metar & Taf Last 4 Metars F.Rules Stats Wind Profile Meteogram Temp Stats Airport Information Weather charts Add Link Nearby VenuesMetar ALERT Operation Metar Decoded Social comments

AIRNAV info for KPUW